Time;durP1;ratioP1;P1;durP2;ratioP2;P2;SDS_P1;SDS_P2;PMS_P1;PMS_P2;Temp;Humidity;BMP_temperature;BMP_pressure;BME280_temperature;BME280_humidity;BME280_pressure;Samples;Min_cycle;Max_cycle;Signal;HPM_P1;HPM_P2
2022/10/13 00:00:55;;;;;;;11.17;10.17;;;;;;;9.93;100.00;100826.53;5082519;28;20217;-76
2022/10/13 00:03:20;;;;;;;11.80;10.70;;;;;;;9.91;100.00;100816.16;5082395;28;20320;-73
2022/10/13 00:05:48;;;;;;;11.53;10.63;;;;;;;9.90;100.00;100817.91;5087763;28;20186;-72
2022/10/13 00:08:19;;;;;;;12.83;11.73;;;;;;;9.91;100.00;100817.03;5077196;28;20182;-74
2022/10/13 00:10:47;;;;;;;13.47;12.17;;;;;;;9.90;100.00;100820.50;5079670;28;20288;-72
2022/10/13 00:13:13;;;;;;;12.20;11.10;;;;;;;9.90;100.00;100817.91;5073204;28;20284;-73
2022/10/13 00:15:40;;;;;;;12.37;11.27;;;;;;;9.90;100.00;100820.50;5081387;28;20189;-74
2022/10/13 00:18:06;;;;;;;13.50;12.30;;;;;;;9.88;100.00;100809.28;5082874;28;20654;-74
2022/10/13 00:20:31;;;;;;;13.90;12.70;;;;;;;9.91;100.00;100800.66;5081349;28;20205;-73
2022/10/13 00:22:57;;;;;;;14.17;12.73;;;;;;;9.93;100.00;100808.44;5079145;28;20543;-73
2022/10/13 00:25:22;;;;;;;14.30;12.90;;;;;;;9.94;100.00;100811.00;5074634;28;20767;-73
2022/10/13 00:27:47;;;;;;;13.60;12.40;;;;;;;9.95;100.00;100812.75;5078433;28;20726;-73
2022/10/13 00:30:13;;;;;;;13.10;11.90;;;;;;;9.95;100.00;100823.06;5082923;28;20617;-73
2022/10/13 00:32:38;;;;;;;13.43;12.27;;;;;;;9.91;100.00;100822.22;5076128;28;20191;-75
2022/10/13 00:35:04;;;;;;;13.90;12.60;;;;;;;9.89;100.00;100812.75;5081618;28;20689;-73
2022/10/13 00:37:29;;;;;;;13.10;11.90;;;;;;;9.87;100.00;100811.88;5076474;28;20186;-75
2022/10/13 00:39:54;;;;;;;12.37;11.33;;;;;;;9.84;100.00;100812.72;5080744;28;20254;-74
2022/10/13 00:42:19;;;;;;;12.70;11.60;;;;;;;9.82;100.00;100809.28;5079628;28;20184;-73
2022/10/13 00:44:57;;;;;;;13.10;11.80;;;;;;;9.81;100.00;100811.84;5075573;28;20582;-74
2022/10/13 00:47:24;;;;;;;12.20;11.17;;;;;;;9.74;100.00;100811.84;5075408;28;20247;-74
2022/10/13 00:49:51;;;;;;;12.10;11.00;;;;;;;9.70;100.00;100814.38;5069432;28;20203;-73
2022/10/13 00:52:19;;;;;;;12.07;10.70;;;;;;;9.65;100.00;100809.22;5073725;28;20185;-74
2022/10/13 00:54:45;;;;;;;12.23;11.10;;;;;;;9.61;100.00;100813.50;5068591;28;20188;-73
2022/10/13 00:57:11;;;;;;;11.17;10.27;;;;;;;9.60;100.00;100810.94;5068584;28;20182;-75
2022/10/13 00:59:38;;;;;;;10.90;10.00;;;;;;;9.57;100.00;100803.16;5073539;28;20224;-73
2022/10/13 01:02:04;;;;;;;12.03;11.03;;;;;;;9.53;100.00;100802.28;5082554;28;20180;-73
2022/10/13 01:04:33;;;;;;;11.57;10.50;;;;;;;9.52;100.00;100802.28;5074473;28;20213;-73
2022/10/13 01:06:59;;;;;;;11.13;10.13;;;;;;;9.50;100.00;100798.81;5078012;28;20213;-73
2022/10/13 01:09:25;;;;;;;11.87;10.77;;;;;;;9.49;100.00;100790.22;5073997;28;20336;-72
2022/10/13 01:12:22;;;;;;;11.73;10.80;;;;;;;9.52;100.00;100794.53;5068876;28;20193;-74
2022/10/13 01:15:15;;;;;;;11.17;10.17;;;;;;;9.57;100.00;100787.66;5076601;28;20304;-74
2022/10/13 01:17:50;;;;;;;11.63;10.57;;;;;;;9.63;100.00;100786.81;5086457;28;20189;-74
2022/10/13 01:20:32;;;;;;;11.50;10.43;;;;;;;9.71;100.00;100795.44;5079249;28;20204;-74
2022/10/13 01:23:19;;;;;;;11.00;9.90;;;;;;;9.79;100.00;100790.28;5077409;28;20193;-73
2022/10/13 01:25:59;;;;;;;10.63;9.73;;;;;;;9.86;100.00;100798.06;5075101;28;20196;-73
2022/10/13 01:28:43;;;;;;;11.07;10.07;;;;;;;9.94;100.00;100789.47;5078726;28;20177;-73
2022/10/13 01:31:19;;;;;;;11.07;9.97;;;;;;;10.02;100.00;100791.22;5070421;28;20204;-73
2022/10/13 01:33:56;;;;;;;10.87;9.87;;;;;;;10.10;100.00;100792.94;5074016;28;20177;-72
2022/10/13 01:36:43;;;;;;;10.67;9.77;;;;;;;10.17;100.00;100786.91;5071330;28;20264;-74
2022/10/13 01:39:22;;;;;;;10.73;9.63;;;;;;;10.24;100.00;100790.38;5076665;28;20213;-75
2022/10/13 01:41:53;;;;;;;10.23;9.23;;;;;;;10.29;100.00;100784.34;5079346;28;20563;-73
2022/10/13 01:44:31;;;;;;;10.17;9.17;;;;;;;10.36;100.00;100782.59;5077520;28;20980;-73
2022/10/13 01:46:59;;;;;;;9.37;8.50;;;;;;;10.41;100.00;100787.81;5078352;28;20189;-74
2022/10/13 01:49:29;;;;;;;9.17;8.37;;;;;;;10.46;100.00;100779.19;5079889;28;20220;-73
2022/10/13 01:51:59;;;;;;;10.03;9.10;;;;;;;10.50;100.00;100780.91;5074644;28;20184;-73
2022/10/13 01:54:24;;;;;;;9.47;8.60;;;;;;;10.56;100.00;100786.94;5070290;28;21067;-72
2022/10/13 01:56:54;;;;;;;10.00;9.20;;;;;;;10.60;100.00;100784.34;5079604;28;20197;-73
2022/10/13 01:59:19;;;;;;;9.67;8.87;;;;;;;10.65;100.00;100789.53;5069921;28;20209;-73
2022/10/13 02:02:17;;;;;;;9.50;8.70;;;;;;;10.70;100.00;100786.91;5068074;28;20538;-73
2022/10/13 02:05:00;;;;;;;10.20;9.37;;;;;;;10.72;100.00;100798.13;5082546;28;20697;-75
2022/10/13 02:07:33;;;;;;;11.07;10.07;;;;;;;10.68;100.00;100787.78;5079057;28;20212;-73
2022/10/13 02:10:13;;;;;;;11.23;10.23;;;;;;;10.66;100.00;100792.09;5077605;28;20209;-74
2022/10/13 02:12:46;;;;;;;9.77;8.97;;;;;;;10.62;100.00;100780.03;5083709;28;20181;-74
2022/10/13 02:15:18;;;;;;;10.20;9.30;;;;;;;10.59;100.00;100782.63;5079480;28;20271;-73
2022/10/13 02:17:43;;;;;;;11.03;9.93;;;;;;;10.56;100.00;100786.94;5069886;28;20190;-73
2022/10/13 02:20:09;;;;;;;10.60;9.70;;;;;;;10.55;100.00;100790.41;5067140;28;20217;-73
2022/10/13 02:22:41;;;;;;;9.73;8.87;;;;;;;10.56;100.00;100786.94;5078199;28;20270;-73
2022/10/13 02:25:06;;;;;;;10.27;9.37;;;;;;;10.54;100.00;100781.75;5076563;28;20223;-75
2022/10/13 02:27:32;;;;;;;10.33;9.43;;;;;;;10.56;100.00;100786.94;5081092;28;20622;-73
2022/10/13 02:29:58;;;;;;;9.93;8.93;;;;;;;10.57;100.00;100789.53;5079486;28;20220;-74
2022/10/13 02:32:23;;;;;;;10.00;9.10;;;;;;;10.59;100.00;100780.03;5071861;28;20554;-73
2022/10/13 02:34:49;;;;;;;9.70;8.80;;;;;;;10.62;100.00;100779.16;5074288;28;20290;-72
2022/10/13 02:37:15;;;;;;;9.60;8.70;;;;;;;10.64;100.00;100786.09;5071813;28;20706;-74
2022/10/13 02:39:40;;;;;;;12.03;9.43;;;;;;;10.65;100.00;100782.63;5069467;28;20208;-74
2022/10/13 02:42:06;;;;;;;9.67;8.87;;;;;;;10.64;100.00;100778.31;5070210;28;20196;-72
2022/10/13 02:44:31;;;;;;;9.50;8.70;;;;;;;10.63;100.00;100778.31;5065948;28;20210;-75
2022/10/13 02:46:56;;;;;;;9.73;8.80;;;;;;;10.62;100.00;100779.16;5075426;28;20197;-73
2022/10/13 02:49:22;;;;;;;9.93;9.03;;;;;;;10.61;100.00;100772.25;5071011;28;20210;-73
2022/10/13 02:51:47;;;;;;;9.90;8.90;;;;;;;10.62;100.00;100766.22;5069454;28;20178;-74
2022/10/13 02:54:12;;;;;;;9.70;8.90;;;;;;;10.64;100.00;100764.50;5100710;28;20179;-76
2022/10/13 02:56:38;;;;;;;9.20;8.43;;;;;;;10.65;100.00;100758.47;5100550;28;20190;-76
2022/10/13 02:59:03;;;;;;;9.07;8.27;;;;;;;10.63;100.00;100755.88;5076882;28;20180;-72
2022/10/13 03:01:28;;;;;;;10.00;9.10;;;;;;;10.62;100.00;100755.88;5078328;28;20594;-73
2022/10/13 03:03:54;;;;;;;9.33;8.50;;;;;;;10.59;100.00;100748.97;5084276;28;20186;-73
2022/10/13 03:06:19;;;;;;;9.30;8.50;;;;;;;10.56;100.00;100743.81;5079809;28;20181;-75
2022/10/13 03:08:44;;;;;;;9.67;8.83;;;;;;;10.54;100.00;100752.44;5071126;28;20538;-76
2022/10/13 03:11:10;;;;;;;8.90;8.10;;;;;;;10.51;100.00;100746.41;5072190;28;20637;-73
2022/10/13 03:13:36;;;;;;;9.73;8.93;;;;;;;10.50;100.00;100751.59;5074073;28;20243;-74
2022/10/13 03:16:02;;;;;;;9.23;8.43;;;;;;;10.50;100.00;100749.84;5074445;28;20190;-73
2022/10/13 03:18:27;;;;;;;10.00;9.10;;;;;;;10.53;100.00;100761.91;5073279;28;20189;-75
2022/10/13 03:21:01;;;;;;;9.83;9.03;;;;;;;10.58;100.00;100756.75;5072431;28;20485;-73
2022/10/13 03:23:26;;;;;;;9.30;8.50;;;;;;;10.60;100.00;100760.19;5074997;28;21007;-74
2022/10/13 03:25:52;;;;;;;9.70;8.80;;;;;;;10.63;100.00;100755.88;5081079;28;20188;-73
2022/10/13 03:28:18;;;;;;;10.17;9.37;;;;;;;10.65;100.00;100764.50;5070422;28;20182;-73
2022/10/13 03:30:43;;;;;;;9.70;8.90;;;;;;;10.68;100.00;100750.69;5077019;28;20209;-73
2022/10/13 03:33:08;;;;;;;10.33;9.33;;;;;;;10.71;100.00;100755.00;5068886;28;20190;-73
2022/10/13 03:35:35;;;;;;;9.13;8.33;;;;;;;10.72;100.00;100744.66;5072099;28;20181;-74
2022/10/13 03:38:00;;;;;;;10.17;9.23;;;;;;;10.74;100.00;100747.22;5079101;28;20268;-72
2022/10/13 03:40:25;;;;;;;9.73;8.93;;;;;;;10.75;100.00;100736.84;5075325;28;20335;-75
2022/10/13 03:42:50;;;;;;;10.20;9.37;;;;;;;10.77;100.00;100739.47;5079124;28;20181;-73
2022/10/13 03:45:16;;;;;;;10.07;9.27;;;;;;;10.78;100.00;100734.25;5076853;28;20201;-73
2022/10/13 03:47:41;;;;;;;12.40;11.20;;;;;;;10.81;100.00;100739.44;5082911;28;20200;-74
2022/10/13 03:50:07;;;;;;;11.70;10.70;;;;;;;10.85;100.00;100739.44;5076754;28;20562;-74
2022/10/13 03:52:32;;;;;;;10.90;10.00;;;;;;;10.88;100.00;100747.22;5070211;28;20194;-75
2022/10/13 03:54:58;;;;;;;10.67;9.73;;;;;;;10.89;100.00;100749.78;5069962;28;20814;-73
2022/10/13 03:57:23;;;;;;;10.83;9.90;;;;;;;10.93;100.00;100745.44;5089940;28;20563;-73
2022/10/13 03:59:48;;;;;;;10.80;9.80;;;;;;;10.94;100.00;100750.63;5076128;28;20293;-73
2022/10/13 04:02:14;;;;;;;10.27;9.37;;;;;;;10.96;100.00;100754.09;5078681;28;20201;-73
2022/10/13 04:04:39;;;;;;;9.90;9.00;;;;;;;10.98;100.00;100761.84;5066819;28;20236;-74
2022/10/13 04:07:06;;;;;;;10.27;9.30;;;;;;;11.01;100.00;100755.78;5075279;28;20252;-71
2022/10/13 04:09:32;;;;;;;9.57;8.67;;;;;;;11.04;100.00;100758.38;5078390;28;20209;-73
2022/10/13 04:11:58;;;;;;;9.63;8.70;;;;;;;11.05;100.00;100755.75;5080445;28;20568;-73
2022/10/13 04:14:23;;;;;;;9.77;8.83;;;;;;;11.08;100.00;100760.09;5072731;28;20182;-74
2022/10/13 04:16:48;;;;;;;10.07;9.07;;;;;;;11.08;100.00;100755.75;5079423;28;20540;-75
2022/10/13 04:19:15;;;;;;;10.10;9.13;;;;;;;11.11;100.00;100752.31;5076446;28;20219;-74
2022/10/13 04:21:41;;;;;;;9.70;8.73;;;;;;;11.11;100.00;100747.97;5067692;28;20186;-74
2022/10/13 04:24:07;;;;;;;9.17;8.47;;;;;;;11.09;100.00;100741.09;5070187;28;20876;-74
2022/10/13 04:26:34;;;;;;;8.80;8.10;;;;;;;11.06;100.00;100743.69;5075314;28;20196;-72
2022/10/13 04:29:03;;;;;;;8.90;8.20;;;;;;;11.00;100.00;100743.69;5071942;28;20181;-73
2022/10/13 04:31:29;;;;;;;8.60;7.90;;;;;;;10.94;100.00;100747.16;5072601;28;20186;-73
2022/10/13 04:33:55;;;;;;;8.00;7.20;;;;;;;10.89;100.00;100747.19;5069744;28;20181;-72
2022/10/13 04:36:21;;;;;;;8.07;7.27;;;;;;;10.86;100.00;100751.53;5065217;28;20195;-76
2022/10/13 04:38:46;;;;;;;7.83;7.23;;;;;;;10.82;100.00;100742.88;5070034;28;20193;-73
2022/10/13 04:41:13;;;;;;;8.53;7.83;;;;;;;10.79;100.00;100754.13;5077986;28;20208;-74
2022/10/13 04:43:39;;;;;;;8.57;7.73;;;;;;;10.74;100.00;100749.81;5072843;28;20580;-73
2022/10/13 04:46:12;;;;;;;8.80;8.00;;;;;;;10.67;100.00;100744.63;5078970;28;20192;-73
2022/10/13 04:48:37;;;;;;;7.93;7.23;;;;;;;10.62;100.00;100748.97;5072859;28;20185;-73
2022/10/13 04:51:11;;;;;;;8.60;7.80;;;;;;;10.58;100.00;100749.00;5075667;28;20244;-73
2022/10/13 04:53:37;;;;;;;8.53;7.73;;;;;;;10.54;100.00;100734.31;5065680;28;20208;-73
2022/10/13 04:56:08;;;;;;;8.67;7.77;;;;;;;10.48;100.00;100741.22;5070041;28;20278;-74
2022/10/13 04:58:34;;;;;;;9.70;8.60;;;;;;;10.44;100.00;100743.81;5068514;28;20190;-73
2022/10/13 05:00:59;;;;;;;9.90;8.97;;;;;;;10.40;100.00;100744.69;5080513;28;20287;-73
2022/10/13 05:03:25;;;;;;;9.57;8.77;;;;;;;10.36;100.00;100739.47;5079604;28;20649;-73
2022/10/13 05:05:51;;;;;;;9.83;8.90;;;;;;;10.32;100.00;100736.91;5073300;28;20190;-74
2022/10/13 05:08:16;;;;;;;9.90;9.00;;;;;;;10.31;100.00;100732.59;5070880;28;20185;-73
2022/10/13 05:10:42;;;;;;;9.23;8.43;;;;;;;10.27;100.00;100738.66;5071938;28;21257;-74
2022/10/13 05:13:07;;;;;;;9.53;8.63;;;;;;;10.24;100.00;100736.91;5071681;28;20204;-73
2022/10/13 05:15:32;;;;;;;9.90;9.00;;;;;;;10.21;100.00;100735.19;5067844;28;20941;-75
2022/10/13 05:17:59;;;;;;;9.37;8.57;;;;;;;10.20;100.00;100720.53;5071481;28;20227;-73
2022/10/13 05:20:25;;;;;;;9.40;8.50;;;;;;;10.19;100.00;100702.44;5063961;28;20207;-73
2022/10/13 05:22:50;;;;;;;9.70;8.80;;;;;;;10.17;100.00;100694.66;5067878;28;20192;-72
2022/10/13 05:25:16;;;;;;;9.77;8.77;;;;;;;10.17;100.00;100686.06;5060920;28;20221;-73
2022/10/13 05:27:41;;;;;;;9.67;8.87;;;;;;;10.17;100.00;100686.06;5072766;28;20185;-75
2022/10/13 05:30:07;;;;;;;9.80;8.97;;;;;;;10.17;100.00;100684.31;5066032;28;20218;-73
2022/10/13 05:32:34;;;;;;;10.53;9.53;;;;;;;10.17;100.00;100670.53;5065749;28;20667;-74
2022/10/13 05:34:59;;;;;;;10.17;9.33;;;;;;;10.16;100.00;100673.97;5071465;28;20209;-74
2022/10/13 05:37:24;;;;;;;10.80;9.70;;;;;;;10.15;100.00;100674.84;5069190;27;20185;-72
2022/10/13 05:39:49;;;;;;;10.67;9.77;;;;;;;10.14;100.00;100667.94;5069844;28;20202;-73
2022/10/13 05:42:15;;;;;;;11.20;10.20;;;;;;;10.13;100.00;100671.38;5071331;28;21039;-73
2022/10/13 05:44:40;;;;;;;11.83;9.90;;;;;;;10.11;100.00;100668.81;5067200;28;20197;-73
2022/10/13 05:47:05;;;;;;;10.00;9.10;;;;;;;10.08;100.00;100668.81;5070715;28;20319;-74
2022/10/13 05:49:31;;;;;;;10.60;9.50;;;;;;;10.08;100.00;100679.16;5068018;28;20240;-76
2022/10/13 05:52:02;;;;;;;9.57;8.77;;;;;;;10.11;100.00;100681.75;5067515;28;20193;-73
2022/10/13 05:54:55;;;;;;;10.33;9.33;;;;;;;10.13;100.00;100673.97;5071504;28;20189;-73
2022/10/13 05:57:29;;;;;;;10.53;9.63;;;;;;;10.16;100.00;100681.75;5071293;28;20255;-73
2022/10/13 06:00:02;;;;;;;10.43;9.33;;;;;;;10.18;100.00;100678.28;5070780;28;20289;-73
2022/10/13 06:02:38;;;;;;;12.37;10.40;;;;;;;10.20;100.00;100689.50;5064937;28;20186;-75
2022/10/13 06:05:09;;;;;;;10.70;9.80;;;;;;;10.21;100.00;100687.75;5071855;28;20884;-72
2022/10/13 06:07:34;;;;;;;10.17;9.20;;;;;;;10.21;100.00;100688.63;5078074;28;20229;-74
2022/10/13 06:10:00;;;;;;;10.40;9.50;;;;;;;10.22;100.00;100689.47;5070802;28;20267;-73
2022/10/13 06:12:25;;;;;;;10.03;9.23;;;;;;;10.24;100.00;100694.66;5070672;28;20216;-73
2022/10/13 06:14:50;;;;;;;10.43;9.40;;;;;;;10.24;100.00;100695.50;5075008;28;20604;-73
2022/10/13 06:17:15;;;;;;;9.57;8.77;;;;;;;10.26;100.00;100700.69;5066390;28;20198;-73
2022/10/13 06:19:41;;;;;;;10.23;9.33;;;;;;;10.26;100.00;100691.19;5072757;28;20209;-75
2022/10/13 06:22:07;;;;;;;9.67;8.73;;;;;;;10.28;100.00;100691.22;5075305;28;20190;-73
2022/10/13 06:24:32;;;;;;;9.47;8.70;;;;;;;10.31;100.00;100704.13;5076531;28;20677;-74
2022/10/13 06:26:58;;;;;;;10.13;9.13;;;;;;;10.33;100.00;100695.53;5074861;28;20926;-75
2022/10/13 06:29:23;;;;;;;10.80;9.80;;;;;;;10.39;100.00;100710.19;5077514;28;20206;-72
2022/10/13 06:31:48;;;;;;;10.20;9.30;;;;;;;10.43;100.00;100701.59;5072521;28;20308;-73
2022/10/13 06:34:14;;;;;;;10.63;9.70;;;;;;;10.49;100.00;100705.88;5064757;28;20174;-72
2022/10/13 06:36:40;;;;;;;10.93;9.97;;;;;;;10.55;100.00;100710.19;5065989;28;20181;-75
2022/10/13 06:39:06;;;;;;;11.10;10.07;;;;;;;10.60;100.00;100709.28;5067963;28;20204;-75
2022/10/13 06:41:31;;;;;;;11.37;10.27;;;;;;;10.66;100.00;100718.78;5076306;28;20290;-72
2022/10/13 06:43:57;;;;;;;12.40;11.30;;;;;;;10.71;100.00;100721.34;5074141;28;20240;-73
2022/10/13 06:46:22;;;;;;;13.00;11.70;;;;;;;10.75;100.00;100723.91;5082316;28;20197;-72
2022/10/13 06:48:49;;;;;;;12.97;11.57;;;;;;;10.79;100.00;100714.44;5075266;28;20264;-75
2022/10/13 06:51:14;;;;;;;12.33;11.13;;;;;;;10.82;100.00;100723.03;5080021;28;20239;-73
2022/10/13 06:53:39;;;;;;;12.30;11.13;;;;;;;10.87;100.00;100715.25;5077769;28;20206;-73
2022/10/13 06:56:06;;;;;;;12.53;11.53;;;;;;;10.94;100.00;100724.75;5073489;28;20658;-75
2022/10/13 06:58:35;;;;;;;11.60;10.60;;;;;;;11.02;100.00;100706.59;5082044;28;20177;-72
2022/10/13 07:01:01;;;;;;;11.43;10.43;;;;;;;11.09;100.00;100707.41;5069776;28;20205;-75
2022/10/13 07:03:26;;;;;;;11.80;10.80;;;;;;;11.17;100.00;100697.03;5079645;28;20205;-73
2022/10/13 07:05:52;;;;;;;12.20;11.10;;;;;;;11.25;100.00;100690.94;5074449;28;20270;-73
2022/10/13 07:08:18;;;;;;;11.73;10.43;;;;;;;11.34;100.00;100702.09;5076707;28;20228;-73
2022/10/13 07:10:43;;;;;;;11.90;10.80;;;;;;;11.42;100.00;100697.72;5083822;28;20216;-73
2022/10/13 07:13:08;;;;;;;12.57;11.37;;;;;;;11.50;100.00;100708.03;5076340;28;20864;-73
2022/10/13 07:15:38;;;;;;;11.97;10.77;;;;;;;11.60;100.00;100709.72;5080273;28;20178;-73
2022/10/13 07:18:04;;;;;;;12.03;10.90;;;;;;;11.68;100.00;100707.09;5079056;28;20332;-75
2022/10/13 07:20:29;;;;;;;11.43;10.40;;;;;;;11.78;100.00;100707.91;5081333;28;20708;-73
2022/10/13 07:22:54;;;;;;;12.40;11.30;;;;;;;11.85;100.00;100712.16;5074320;28;20222;-73
2022/10/13 07:25:20;;;;;;;12.27;11.17;;;;;;;11.93;100.00;100714.69;5079092;28;20214;-73
2022/10/13 07:27:45;;;;;;;11.83;10.73;;;;;;;12.00;100.00;100706.88;5075679;28;20183;-74
2022/10/13 07:30:11;;;;;;;11.83;10.63;;;;;;;12.10;100.00;100693.84;5074360;28;20198;-73
2022/10/13 07:32:38;;;;;;;10.90;9.80;;;;;;;12.17;100.00;100695.50;5080458;28;20200;-73
2022/10/13 07:35:04;;;;;;;11.03;10.13;;;;;;;12.24;100.00;100693.69;5075255;28;20640;-72
2022/10/13 07:37:29;;;;;;;11.23;10.23;;;;;;;12.33;100.00;100694.47;5079118;28;20180;-73
2022/10/13 07:39:54;;;;;;;11.23;9.83;;;;;;;12.40;100.00;100697.88;5077667;28;20234;-73
2022/10/13 07:42:20;;;;;;;11.17;10.17;;;;;;;12.45;100.00;100700.41;5074402;28;20266;-74
2022/10/13 07:44:45;;;;;;;11.10;10.10;;;;;;;12.48;100.00;100690.84;5073759;28;20206;-75
2022/10/13 07:47:10;;;;;;;10.00;9.10;;;;;;;12.56;100.00;100695.97;5077220;28;20283;-73
2022/10/13 07:49:36;;;;;;;10.20;9.37;;;;;;;12.65;100.00;100695.00;5077510;28;20583;-75
2022/10/13 07:52:01;;;;;;;10.73;9.23;;;;;;;12.75;100.00;100685.38;5080736;28;20620;-73
2022/10/13 07:54:27;;;;;;;10.03;9.00;;;;;;;12.85;100.00;100680.94;5071169;28;20191;-72
2022/10/13 07:56:54;;;;;;;10.63;9.60;;;;;;;12.90;100.00;100689.56;5080583;28;20270;-74
2022/10/13 07:59:20;;;;;;;9.90;9.00;;;;;;;12.94;100.00;100686.00;5074234;28;20299;-73
2022/10/13 08:01:46;;;;;;;10.37;9.30;;;;;;;13.02;100.00;100684.19;5078586;28;20198;-75
2022/10/13 08:04:12;;;;;;;9.23;8.23;;;;;;;13.11;100.00;100691.00;5072093;28;20258;-73
2022/10/13 08:06:37;;;;;;;10.00;9.10;;;;;;;13.18;100.00;100684.84;5073944;28;20195;-74
2022/10/13 08:09:03;;;;;;;10.37;9.47;;;;;;;13.24;100.00;100676.97;5072036;28;20220;-73
2022/10/13 08:11:29;;;;;;;10.40;9.37;;;;;;;13.29;100.00;100679.50;5078126;28;20241;-74
2022/10/13 08:13:59;;;;;;;10.30;9.30;;;;;;;13.35;100.00;100688.94;5072406;28;20185;-74
2022/10/13 08:16:28;;;;;;;9.93;9.03;;;;;;;13.41;100.00;100683.72;5076086;28;20181;-74
2022/10/13 08:18:55;;;;;;;9.83;8.93;;;;;;;13.45;100.00;100682.78;5077971;28;20237;-73
2022/10/13 08:21:21;;;;;;;10.50;9.53;;;;;;;13.50;100.00;100685.31;5080792;28;20188;-74
2022/10/13 08:23:47;;;;;;;11.93;10.83;;;;;;;13.48;100.00;100680.13;5080022;28;20205;-73
2022/10/13 08:26:19;;;;;;;11.60;10.53;;;;;;;13.47;100.00;100687.97;5070763;28;20561;-73
2022/10/13 08:28:44;;;;;;;11.23;10.23;;;;;;;13.47;100.00;100682.75;5083783;28;20188;-72
2022/10/13 08:31:09;;;;;;;11.97;10.73;;;;;;;13.52;100.00;100679.19;5077162;28;20273;-73
2022/10/13 08:33:35;;;;;;;12.50;11.33;;;;;;;13.57;100.00;100684.31;5075354;28;22325;-73
2022/10/13 08:36:00;;;;;;;11.93;10.77;;;;;;;13.68;100.00;100692.84;5080131;28;20198;-73
2022/10/13 08:38:25;;;;;;;11.27;10.23;;;;;;;13.86;100.00;100683.00;5074558;28;20842;-74
2022/10/13 08:40:52;;;;;;;14.63;11.20;;;;;;;14.02;100.00;100681.88;5074153;28;20298;-74
2022/10/13 08:43:20;;;;;;;12.00;10.80;;;;;;;14.15;100.00;100679.06;5074968;28;20192;-72
2022/10/13 08:45:49;;;;;;;12.03;10.93;;;;;;;14.31;100.00;100684.88;5078913;28;20814;-76
2022/10/13 08:48:20;;;;;;;12.27;11.00;;;;;;;14.40;100.00;100686.44;5073896;28;20280;-73
2022/10/13 08:50:50;;;;;;;14.23;11.57;;;;;;;14.43;100.00;100678.59;5070875;28;20234;-74
2022/10/13 08:53:27;;;;;;;12.23;11.07;;;;;;;14.45;100.00;100685.47;5069010;28;20185;-73
2022/10/13 08:56:01;;;;;;;13.37;12.03;;;;;;;14.54;100.00;100683.56;5068288;28;20193;-75
2022/10/13 08:58:32;;;;;;;11.33;10.33;;;;;;;14.57;100.00;100684.38;5068285;28;20682;-73
2022/10/13 09:01:29;;;;;;;12.90;11.63;;;;;;;14.57;100.00;100684.38;5080599;28;21580;-73
2022/10/13 09:04:07;;;;;;;12.57;11.47;;;;;;;14.54;100.00;100686.16;5070426;28;20198;-73
2022/10/13 09:06:40;;;;;;;12.83;11.73;;;;;;;14.55;100.00;100687.88;5075460;28;20584;-73
2022/10/13 09:09:10;;;;;;;13.97;12.67;;;;;;;14.56;100.00;100692.22;5071019;28;20539;-75
2022/10/13 09:11:38;;;;;;;14.73;13.23;;;;;;;14.56;100.00;100689.59;5073721;28;20178;-75
2022/10/13 09:14:06;;;;;;;12.77;11.57;;;;;;;14.55;100.00;100691.38;5074532;28;20268;-73
2022/10/13 09:16:43;;;;;;;12.87;11.67;;;;;;;14.55;100.00;100687.88;5069388;28;20224;-73
2022/10/13 09:19:32;;;;;;;13.03;11.83;;;;;;;14.57;100.00;100689.59;5078184;28;20208;-74
2022/10/13 09:22:22;;;;;;;13.77;12.47;;;;;;;14.59;100.00;100695.63;5073665;28;20286;-74
2022/10/13 09:25:06;;;;;;;13.63;12.37;;;;;;;14.63;100.00;100693.81;5071816;28;20221;-73
2022/10/13 09:27:57;;;;;;;14.00;12.47;;;;;;;14.67;100.00;100686.81;5079270;28;20192;-73
2022/10/13 09:30:41;;;;;;;13.87;12.67;;;;;;;14.68;100.00;100683.34;5076604;28;20201;-73
2022/10/13 09:33:12;;;;;;;14.30;13.00;;;;;;;14.70;100.00;100684.19;5076861;28;20702;-74
2022/10/13 09:35:44;;;;;;;13.27;12.10;;;;;;;14.75;100.00;100682.31;5074222;28;20227;-73
2022/10/13 09:38:14;;;;;;;14.97;13.47;;;;;;;14.75;100.00;100674.50;5076971;28;20214;-73
2022/10/13 09:40:40;;;;;;;14.67;12.37;;;;;;;14.81;100.00;100668.34;5075859;28;20213;-74
2022/10/13 09:43:26;;;;;;;13.90;12.73;;;;;;;14.87;100.00;100669.06;5082115;28;20242;-74
2022/10/13 09:45:52;;;;;;;13.53;12.27;;;;;;;14.98;100.00;100667.97;5070163;28;20185;-73
2022/10/13 09:48:25;;;;;;;13.33;12.13;;;;;;;15.14;100.00;100678.91;5076724;28;20704;-73
2022/10/13 09:50:53;;;;;;;13.43;11.83;;;;;;;15.24;100.00;100680.44;5077540;28;20248;-74
2022/10/13 09:53:31;;;;;;;14.47;13.07;;;;;;;15.31;100.00;100678.56;5076812;28;20189;-76
2022/10/13 09:56:18;;;;;;;13.93;12.63;;;;;;;15.33;100.00;100666.34;5077636;28;20233;-75
2022/10/13 09:58:52;;;;;;;14.27;13.00;;;;;;;15.45;100.00;100668.66;5080126;28;20189;-72
2022/10/13 10:01:26;;;;;;;15.93;14.33;;;;;;;15.57;100.00;100675.38;5076338;28;20188;-72
2022/10/13 10:03:53;;;;;;;16.20;13.30;;;;;;;15.63;100.00;100672.59;5075651;28;20195;-72
2022/10/13 10:06:19;;;;;;;14.67;13.10;;;;;;;15.69;100.00;100654.19;5077248;28;20347;-73
2022/10/13 10:08:53;;;;;;;13.90;12.40;;;;;;;15.74;100.00;100655.81;5076315;28;20664;-71
2022/10/13 10:11:26;;;;;;;15.17;13.13;;;;;;;15.80;100.00;100659.16;5068954;28;20238;-73
2022/10/13 10:13:52;;;;;;;13.37;11.97;;;;;;;15.89;100.00;100667.66;5070762;28;20563;-73
2022/10/13 10:16:29;;;;;;;13.47;12.27;;;;;;;15.93;100.00;100658.88;5072862;28;20186;-73
2022/10/13 10:19:02;;;;;;;13.53;12.23;;;;;;;15.96;100.00;100666.59;5064778;28;20244;-72
2022/10/13 10:21:36;;;;;;;13.17;12.07;;;;;;;16.06;100.00;100660.28;5075743;28;20236;-72
2022/10/13 10:24:26;;;;;;;15.27;13.67;;;;;;;16.24;100.00;100658.09;5078867;28;20664;-76
2022/10/13 10:27:13;;;;;;;14.70;13.20;;;;;;;16.45;100.00;100654.88;5073800;28;20185;-72
2022/10/13 10:29:55;;;;;;;14.07;12.73;;;;;;;16.64;100.00;100654.34;5074358;28;20266;-72
2022/10/13 10:32:27;;;;;;;13.13;11.83;;;;;;;16.71;100.00;100660.25;5078440;28;20256;-74
2022/10/13 10:35:10;;;;;;;13.33;12.03;;;;;;;16.75;100.00;100651.44;5076594;28;21190;-72
2022/10/13 10:38:08;;;;;;;16.30;14.80;;;;;;;16.73;100.00;100650.63;5069370;28;20192;-73
2022/10/13 10:41:02;;;;;;;17.30;15.47;;;;;;;16.66;100.00;100654.31;5069565;28;20292;-73
2022/10/13 10:43:50;;;;;;;16.63;15.13;;;;;;;16.52;100.00;100646.88;5078310;28;20183;-74
2022/10/13 10:46:21;;;;;;;15.73;14.23;;;;;;;16.43;100.00;100645.38;5072165;28;20184;-75
2022/10/13 10:48:49;;;;;;;14.63;13.23;;;;;;;16.37;100.00;100654.22;5077419;28;20235;-74
2022/10/13 10:51:15;;;;;;;15.13;13.80;;;;;;;16.29;100.00;100641.38;5072031;28;20242;-72
2022/10/13 10:53:52;;;;;;;16.20;14.70;;;;;;;16.29;100.00;100645.72;5076315;28;20667;-73
2022/10/13 10:56:26;;;;;;;14.57;13.23;;;;;;;16.30;100.00;100639.63;5073812;28;20182;-73
2022/10/13 10:59:07;;;;;;;14.23;12.70;;;;;;;16.36;100.00;100642.06;5064560;28;20204;-74
2022/10/13 11:01:47;;;;;;;13.40;11.90;;;;;;;16.41;100.00;100637.56;5070976;28;20195;-72
2022/10/13 11:04:27;;;;;;;13.83;12.60;;;;;;;16.39;100.00;100633.28;5072949;28;20251;-73
2022/10/13 11:06:53;;;;;;;14.20;12.80;;;;;;;16.36;100.00;100636.84;5076418;28;20196;-73
2022/10/13 11:09:41;;;;;;;13.87;12.57;;;;;;;16.35;100.00;100634.25;5072716;28;20200;-73
2022/10/13 11:12:18;;;;;;;13.73;12.53;;;;;;;16.36;100.00;100629.00;5077610;28;20241;-72
2022/10/13 11:14:52;;;;;;;13.50;12.30;;;;;;;16.33;100.00;100629.09;5073529;28;22229;-72
2022/10/13 11:17:26;;;;;;;12.83;11.63;;;;;;;16.34;100.00;100619.47;5077754;28;20546;-73
2022/10/13 11:19:52;;;;;;;13.33;12.03;;;;;;;16.42;100.00;100620.97;5077048;28;20199;-72